createdAt,value
2023-03-22T00:01:12.670Z,9.60
2023-03-22T00:03:41.741Z,9.60
2023-03-22T00:06:09.955Z,9.60
2023-03-22T00:08:37.159Z,9.60
2023-03-22T00:11:05.309Z,9.60
2023-03-22T00:13:34.423Z,9.50
2023-03-22T00:16:02.774Z,9.50
2023-03-22T00:18:30.710Z,9.50
2023-03-22T00:21:00.694Z,9.40
2023-03-22T00:23:28.869Z,9.40
2023-03-22T00:25:56.194Z,9.40
2023-03-22T00:28:23.946Z,9.40
2023-03-22T00:30:56.036Z,9.40
2023-03-22T00:33:23.368Z,9.30
2023-03-22T00:35:51.698Z,9.30
2023-03-22T00:38:21.894Z,9.30
2023-03-22T00:40:50.378Z,9.30
2023-03-22T00:43:17.222Z,9.20
2023-03-22T00:45:44.483Z,9.20
2023-03-22T00:48:12.061Z,9.20
2023-03-22T00:50:39.612Z,9.20
2023-03-22T00:53:07.043Z,9.20
2023-03-22T00:55:35.323Z,9.20
2023-03-22T00:58:02.507Z,9.20
2023-03-22T01:00:29.988Z,9.30
2023-03-22T01:02:59.819Z,9.20
2023-03-22T01:05:28.263Z,9.30
2023-03-22T01:07:55.731Z,9.30
2023-03-22T01:10:23.132Z,9.30
2023-03-22T01:12:51.727Z,9.30
2023-03-22T01:15:18.675Z,9.30
2023-03-22T01:17:46.816Z,9.30
2023-03-22T01:20:14.251Z,9.20
2023-03-22T01:22:45.703Z,9.20
2023-03-22T01:25:12.711Z,9.30
2023-03-22T01:27:39.919Z,9.30
2023-03-22T01:30:09.791Z,9.30
2023-03-22T01:32:37.506Z,9.30
2023-03-22T01:35:05.083Z,9.30
2023-03-22T01:37:32.995Z,9.30
2023-03-22T01:39:59.984Z,9.40
2023-03-22T01:42:28.171Z,9.40
2023-03-22T01:45:34.647Z,9.40
2023-03-22T01:48:14.536Z,9.40
2023-03-22T01:50:56.189Z,9.50
2023-03-22T01:53:25.666Z,9.50
2023-03-22T01:55:55.408Z,9.60
2023-03-22T01:58:22.340Z,9.60
2023-03-22T02:00:52.452Z,9.70
2023-03-22T02:03:26.751Z,9.80
2023-03-22T02:05:54.171Z,9.80
2023-03-22T02:08:21.240Z,9.90
2023-03-22T02:10:48.661Z,9.80
2023-03-22T02:13:50.001Z,9.90
2023-03-22T02:16:32.110Z,9.90
2023-03-22T02:19:35.969Z,9.90
2023-03-22T02:22:23.440Z,9.90
2023-03-22T02:25:34.234Z,9.90
2023-03-22T02:28:27.973Z,9.90
2023-03-22T02:31:39.717Z,9.90
2023-03-22T02:34:29.856Z,9.90
2023-03-22T02:37:22.186Z,10.00
2023-03-22T02:39:54.081Z,10.00
2023-03-22T02:42:38.956Z,10.00
2023-03-22T02:45:11.366Z,10.10
2023-03-22T02:47:49.386Z,10.10
2023-03-22T02:50:24.530Z,10.10
2023-03-22T02:52:54.589Z,10.10
2023-03-22T02:55:28.694Z,10.10
2023-03-22T02:57:59.576Z,10.10
2023-03-22T03:00:27.935Z,10.20
2023-03-22T03:02:58.057Z,10.20
2023-03-22T03:05:34.940Z,10.10
2023-03-22T03:08:11.042Z,10.20
2023-03-22T03:10:41.490Z,10.20
2023-03-22T03:13:12.293Z,10.20
2023-03-22T03:15:42.734Z,10.20
2023-03-22T03:18:26.300Z,10.10
2023-03-22T03:21:00.383Z,10.10
2023-03-22T03:23:38.057Z,10.10
2023-03-22T03:26:13.601Z,10.10
2023-03-22T03:28:49.816Z,10.10
2023-03-22T03:31:28.161Z,10.00
2023-03-22T03:34:02.603Z,10.00
2023-03-22T03:36:34.704Z,10.00
2023-03-22T03:39:04.330Z,10.00
2023-03-22T03:41:33.729Z,10.00
2023-03-22T03:44:01.256Z,10.00
2023-03-22T03:46:29.291Z,9.90
2023-03-22T03:48:58.757Z,9.90
2023-03-22T03:51:27.416Z,10.00
2023-03-22T03:53:54.345Z,9.90
2023-03-22T03:56:23.637Z,9.90
2023-03-22T03:58:51.921Z,9.90
2023-03-22T04:01:20.649Z,10.00
2023-03-22T04:03:50.548Z,9.90
2023-03-22T04:06:17.568Z,9.90
2023-03-22T04:08:45.643Z,10.00
2023-03-22T04:11:12.683Z,10.00
2023-03-22T04:13:39.490Z,10.10
2023-03-22T04:16:08.921Z,10.10
2023-03-22T04:18:36.030Z,10.10
2023-03-22T04:21:03.408Z,10.10
2023-03-22T04:23:33.106Z,10.10
2023-03-22T04:26:03.651Z,10.10
2023-03-22T04:28:33.856Z,10.10
2023-03-22T04:31:03.444Z,10.10
2023-03-22T04:33:32.425Z,10.10
2023-03-22T04:36:04.076Z,10.10
2023-03-22T04:38:31.352Z,10.10
2023-03-22T04:40:58.447Z,10.10
2023-03-22T04:43:28.155Z,10.10
2023-03-22T04:45:58.326Z,10.10
2023-03-22T04:48:28.055Z,10.10
2023-03-22T04:50:56.577Z,10.10
2023-03-22T04:53:27.196Z,10.10
2023-03-22T04:55:57.086Z,10.10
2023-03-22T04:58:25.850Z,10.00
2023-03-22T05:00:53.819Z,10.00
2023-03-22T05:03:21.535Z,10.00
2023-03-22T05:05:52.629Z,10.00
2023-03-22T05:08:22.332Z,9.90
2023-03-22T05:10:49.328Z,9.90
2023-03-22T05:13:16.095Z,9.90
2023-03-22T05:15:43.606Z,9.90
2023-03-22T05:18:10.523Z,9.90
2023-03-22T05:20:38.003Z,9.90
2023-03-22T05:23:05.234Z,9.90
2023-03-22T05:25:34.171Z,9.80
2023-03-22T05:28:02.045Z,9.80
2023-03-22T05:30:29.209Z,9.80
2023-03-22T05:32:59.811Z,9.80
2023-03-22T05:35:27.419Z,9.80
2023-03-22T05:37:54.305Z,9.70
2023-03-22T05:40:23.872Z,9.80
2023-03-22T05:42:52.815Z,9.70
2023-03-22T05:45:20.762Z,9.70
2023-03-22T05:47:47.826Z,9.70
2023-03-22T05:50:17.386Z,9.70
2023-03-22T05:52:45.237Z,9.70
2023-03-22T05:55:13.582Z,9.80
2023-03-22T05:57:41.110Z,9.80
2023-03-22T06:00:13.327Z,9.80
2023-03-22T06:02:42.850Z,9.80
2023-03-22T06:05:13.624Z,9.80
2023-03-22T06:07:41.487Z,9.80
2023-03-22T06:10:11.926Z,9.80
2023-03-22T06:12:38.812Z,9.80
2023-03-22T06:15:10.060Z,9.80
2023-03-22T06:17:37.862Z,9.80
2023-03-22T06:20:11.937Z,9.80
2023-03-22T06:22:39.398Z,9.80
2023-03-22T06:25:07.442Z,9.90
2023-03-22T06:27:34.995Z,9.90
2023-03-22T06:30:02.159Z,9.90
2023-03-22T06:32:32.859Z,9.90
2023-03-22T06:35:00.293Z,10.00
2023-03-22T06:37:27.279Z,10.10
2023-03-22T06:39:54.533Z,10.10
2023-03-22T06:42:21.790Z,10.20
2023-03-22T06:44:49.156Z,10.30
2023-03-22T06:47:16.068Z,10.40
2023-03-22T06:49:44.280Z,10.40
2023-03-22T06:52:11.082Z,10.40
2023-03-22T06:54:37.980Z,10.50
2023-03-22T06:57:04.906Z,10.50
2023-03-22T06:59:32.063Z,10.50
2023-03-22T07:01:59.125Z,10.60
2023-03-22T07:04:27.846Z,10.60
2023-03-22T07:06:57.308Z,10.60
2023-03-22T07:09:24.983Z,10.60
2023-03-22T07:11:51.821Z,10.60
2023-03-22T07:14:19.001Z,10.60
2023-03-22T07:16:46.166Z,10.60
2023-03-22T07:19:13.164Z,10.60
2023-03-22T07:21:40.169Z,10.70
2023-03-22T07:24:09.364Z,10.70
2023-03-22T07:26:40.529Z,10.70
2023-03-22T07:29:07.712Z,10.80
2023-03-22T07:31:38.147Z,10.80
2023-03-22T07:34:05.801Z,10.90
2023-03-22T07:36:33.513Z,10.90
2023-03-22T07:39:00.536Z,10.90
2023-03-22T07:41:30.633Z,11.00
2023-03-22T07:44:11.214Z,11.20
2023-03-22T07:46:43.907Z,11.30
2023-03-22T07:49:11.002Z,11.40
2023-03-22T07:51:37.937Z,11.40
2023-03-22T07:54:07.504Z,11.50
2023-03-22T07:56:36.073Z,11.60
2023-03-22T07:59:03.177Z,11.60
2023-03-22T08:01:30.154Z,11.80
2023-03-22T08:03:57.225Z,11.90
2023-03-22T08:06:24.105Z,11.90
2023-03-22T08:08:53.780Z,11.90
2023-03-22T08:11:20.703Z,11.90
2023-03-22T08:13:49.029Z,12.00
2023-03-22T08:16:16.758Z,12.10
2023-03-22T08:18:45.393Z,12.10
2023-03-22T08:21:12.727Z,12.10
2023-03-22T08:23:42.015Z,12.10
2023-03-22T08:26:11.831Z,12.10
2023-03-22T08:28:38.977Z,12.10
2023-03-22T08:31:15.622Z,12.10
2023-03-22T08:33:43.651Z,12.20
2023-03-22T08:36:13.387Z,12.20
2023-03-22T08:38:40.285Z,12.20
2023-03-22T08:41:07.286Z,12.10
2023-03-22T08:43:34.221Z,12.10
2023-03-22T08:46:01.109Z,12.10
2023-03-22T08:48:30.675Z,12.10
2023-03-22T08:50:58.090Z,12.10
2023-03-22T08:53:28.181Z,12.10
2023-03-22T08:55:58.021Z,12.00
2023-03-22T08:58:25.539Z,11.90
2023-03-22T09:00:52.639Z,11.90
2023-03-22T09:03:19.929Z,11.90
2023-03-22T09:05:48.313Z,11.90
2023-03-22T09:08:19.110Z,11.80
2023-03-22T09:10:48.192Z,11.80
2023-03-22T09:13:16.771Z,11.70
2023-03-22T09:15:45.143Z,11.70
2023-03-22T09:18:12.719Z,11.60
2023-03-22T09:20:40.297Z,11.60
2023-03-22T09:23:08.914Z,11.60
2023-03-22T09:25:36.063Z,11.50
2023-03-22T09:28:04.128Z,11.50
2023-03-22T09:30:31.556Z,11.50
2023-03-22T09:32:58.631Z,11.40
2023-03-22T09:35:26.011Z,11.40
2023-03-22T09:37:54.547Z,11.20
2023-03-22T09:40:27.505Z,11.20
2023-03-22T09:42:57.188Z,11.20
2023-03-22T09:45:33.124Z,11.10
2023-03-22T09:48:01.031Z,11.10
2023-03-22T09:50:31.137Z,11.10
2023-03-22T09:52:58.522Z,11.10
2023-03-22T09:55:37.709Z,11.00
2023-03-22T09:58:14.853Z,11.00
2023-03-22T10:00:46.213Z,11.10
2023-03-22T10:03:21.973Z,11.10
2023-03-22T10:05:53.256Z,11.00
2023-03-22T10:08:47.548Z,11.10
2023-03-22T10:11:23.453Z,11.10
2023-03-22T10:13:59.045Z,11.10
2023-03-22T10:16:29.349Z,11.10
2023-03-22T10:19:05.041Z,11.10
2023-03-22T10:21:33.798Z,11.20
2023-03-22T10:24:09.983Z,11.20
2023-03-22T10:26:44.789Z,11.20
2023-03-22T10:29:17.552Z,11.20
2023-03-22T10:31:48.197Z,11.20
2023-03-22T10:34:21.717Z,11.20
2023-03-22T10:36:51.551Z,11.20
2023-03-22T10:39:29.588Z,11.20
2023-03-22T10:42:01.598Z,11.10
2023-03-22T10:44:36.995Z,11.10
2023-03-22T10:47:08.260Z,11.10
2023-03-22T10:49:39.727Z,11.10
2023-03-22T10:52:22.931Z,11.10
2023-03-22T10:54:50.054Z,11.20
2023-03-22T10:57:19.203Z,11.20
2023-03-22T10:59:47.740Z,11.20
2023-03-22T11:02:21.159Z,11.30
2023-03-22T11:04:50.256Z,11.30
2023-03-22T11:07:36.087Z,11.30
2023-03-22T11:10:24.919Z,11.40
2023-03-22T11:12:56.167Z,11.40
2023-03-22T11:15:27.915Z,11.40
2023-03-22T11:18:00.466Z,11.40
2023-03-22T11:20:37.678Z,11.50
2023-03-22T11:23:06.896Z,11.50
2023-03-22T11:25:36.645Z,11.50
2023-03-22T11:28:16.537Z,11.50
2023-03-22T11:30:58.720Z,11.50
2023-03-22T11:33:26.503Z,11.60
2023-03-22T11:35:55.740Z,11.60
2023-03-22T11:38:25.575Z,11.60
2023-03-22T11:40:57.728Z,11.60
2023-03-22T11:43:31.776Z,11.60
2023-03-22T11:46:00.621Z,11.60
2023-03-22T11:48:30.572Z,11.60
2023-03-22T11:51:05.640Z,11.70
2023-03-22T11:53:35.522Z,11.70
2023-03-22T11:56:07.398Z,11.70
2023-03-22T11:58:54.106Z,11.70
2023-03-22T12:01:34.957Z,11.70
2023-03-22T12:04:05.644Z,11.70
2023-03-22T12:06:36.635Z,11.70
2023-03-22T12:09:07.752Z,11.70
2023-03-22T12:11:40.676Z,11.70
2023-03-22T12:14:16.717Z,11.70
2023-03-22T12:16:48.036Z,11.70
2023-03-22T12:19:29.406Z,11.70
2023-03-22T12:21:58.679Z,11.70
2023-03-22T12:24:29.264Z,11.70
2023-03-22T12:27:04.966Z,11.70
2023-03-22T12:29:36.394Z,11.70
2023-03-22T12:32:09.998Z,11.70
2023-03-22T12:34:41.396Z,11.70
2023-03-22T12:37:14.722Z,11.70
2023-03-22T12:39:50.648Z,11.70
2023-03-22T12:42:23.720Z,11.70
2023-03-22T12:45:04.658Z,11.70
2023-03-22T12:47:38.413Z,11.80
2023-03-22T12:50:11.789Z,11.80
2023-03-22T12:52:45.880Z,11.80
2023-03-22T12:55:18.820Z,11.80
2023-03-22T12:57:51.177Z,11.90
2023-03-22T13:00:20.981Z,11.80
2023-03-22T13:02:55.483Z,11.90
2023-03-22T13:05:27.851Z,11.90
2023-03-22T13:07:57.112Z,11.90
2023-03-22T13:10:59.500Z,11.90
2023-03-22T13:13:47.012Z,11.90
2023-03-22T13:16:19.433Z,11.90
2023-03-22T13:19:01.831Z,11.90
2023-03-22T13:21:35.432Z,12.00
2023-03-22T13:24:22.428Z,12.00
2023-03-22T13:26:51.560Z,12.00
2023-03-22T13:29:21.952Z,12.10
2023-03-22T13:31:58.529Z,12.10
2023-03-22T13:34:38.308Z,12.10
2023-03-22T13:37:10.966Z,12.10
2023-03-22T13:39:39.304Z,12.10
2023-03-22T13:42:21.047Z,12.20
2023-03-22T13:44:56.966Z,12.20
2023-03-22T13:47:35.253Z,12.20
2023-03-22T13:50:11.632Z,12.20
2023-03-22T13:52:42.059Z,12.20
2023-03-22T13:55:47.144Z,12.20
2023-03-22T13:58:36.131Z,12.30
2023-03-22T14:01:06.152Z,12.20
2023-03-22T14:03:39.341Z,12.20
2023-03-22T14:06:11.614Z,12.20
2023-03-22T14:08:41.740Z,12.20
2023-03-22T14:11:20.609Z,12.20
2023-03-22T14:13:51.906Z,12.20
2023-03-22T14:16:28.863Z,12.20
2023-03-22T14:18:58.157Z,12.20
2023-03-22T14:21:40.095Z,12.30
